Time;durP1;ratioP1;P1;durP2;ratioP2;P2;SDS_P1;SDS_P2;PMS_P1;PMS_P2;Temp;Humidity;BMP_temperature;BMP_pressure;BME280_temperature;BME280_humidity;BME280_pressure;Samples;Min_cycle;Max_cycle;Signal;HPM_P1;HPM_P2
2022/06/27 00:01:07;;;;;;;1.25;0.70;;;20.40;59.90;;;;;;6057168;23;20010;-88
2022/06/27 00:03:32;;;;;;;1.52;0.80;;;20.40;59.90;;;;;;6056248;23;20093;-85
2022/06/27 00:05:58;;;;;;;2.47;0.80;;;20.40;59.80;;;;;;6035442;23;20062;-87
2022/06/27 00:08:24;;;;;;;2.13;0.85;;;20.40;59.70;;;;;;6031685;23;20443;-87
2022/06/27 00:10:50;;;;;;;1.42;0.70;;;20.40;59.60;;;;;;6030289;23;20007;-88
2022/06/27 00:13:16;;;;;;;1.42;0.80;;;20.40;59.70;;;;;;6030912;23;20014;-88
2022/06/27 00:15:42;;;;;;;1.85;0.90;;;20.40;59.70;;;;;;6031321;23;20018;-88
2022/06/27 00:18:07;;;;;;;2.75;1.20;;;20.40;59.70;;;;;;6054467;23;20023;-86
2022/06/27 00:20:33;;;;;;;2.17;0.93;;;20.40;59.70;;;;;;6033186;23;20050;-87
2022/06/27 00:22:59;;;;;;;1.65;0.82;;;20.40;59.80;;;;;;6057117;23;20003;-88
2022/06/27 00:25:25;;;;;;;2.38;0.80;;;20.40;59.90;;;;;;6056409;23;20785;-88
2022/06/27 00:27:51;;;;;;;2.90;0.88;;;20.30;59.80;;;;;;6031666;23;20011;-88
2022/06/27 00:30:16;;;;;;;2.00;1.05;;;20.30;59.90;;;;;;6034113;23;20010;-88
2022/06/27 00:32:42;;;;;;;3.35;1.15;;;20.30;59.90;;;;;;6032436;23;20458;-87
2022/06/27 00:35:09;;;;;;;1.55;0.82;;;20.20;59.90;;;;;;6055746;23;20480;-88
2022/06/27 00:37:35;;;;;;;3.20;0.88;;;20.20;60.00;;;;;;6032882;23;20017;-87
2022/06/27 00:40:02;;;;;;;1.65;0.77;;;20.20;60.00;;;;;;6057889;23;20018;-86
2022/06/27 00:42:28;;;;;;;4.15;0.90;;;20.20;60.10;;;;;;6057729;23;20014;-88
2022/06/27 00:44:54;;;;;;;2.47;0.90;;;20.10;60.20;;;;;;6055471;23;20066;-88
2022/06/27 00:47:20;;;;;;;8.95;2.38;;;20.10;60.20;;;;;;6032966;23;20115;-86
2022/06/27 00:49:46;;;;;;;3.72;0.93;;;20.10;60.30;;;;;;6031598;23;20175;-88
2022/06/27 00:52:13;;;;;;;4.43;0.90;;;20.00;60.40;;;;;;6032719;23;20011;-88
2022/06/27 00:54:42;;;;;;;1.90;1.00;;;20.00;60.50;;;;;;6031548;23;20053;-88
2022/06/27 00:57:08;;;;;;;3.78;0.80;;;20.00;60.50;;;;;;6030683;23;20078;-88
2022/06/27 00:59:35;;;;;;;3.22;1.10;;;20.00;60.60;;;;;;6031298;23;20011;-88
2022/06/27 01:02:01;;;;;;;1.75;0.85;;;20.00;60.70;;;;;;6055908;23;20029;-88
2022/06/27 01:04:28;;;;;;;2.72;0.80;;;20.00;60.80;;;;;;6010206;23;20463;-88
2022/06/27 01:06:54;;;;;;;1.35;0.65;;;20.00;60.90;;;;;;6030143;23;20066;-88
2022/06/27 01:09:22;;;;;;;1.42;0.70;;;20.00;60.80;;;;;;6033061;23;20018;-86
2022/06/27 01:11:48;;;;;;;2.33;0.90;;;20.00;60.80;;;;;;6054374;23;20014;-88
2022/06/27 01:14:15;;;;;;;3.15;0.80;;;20.00;60.80;;;;;;6032365;23;20007;-88
2022/06/27 01:16:40;;;;;;;2.33;0.90;;;20.00;60.80;;;;;;6058524;23;20015;-86
2022/06/27 01:19:12;;;;;;;4.25;0.90;;;20.00;60.80;;;;;;6060146;23;20058;-88
2022/06/27 01:21:48;;;;;;;2.97;1.13;;;20.00;60.80;;;;;;6060648;23;20059;-88
2022/06/27 01:24:14;;;;;;;1.25;0.80;;;20.00;60.80;;;;;;6035639;23;20003;-88
2022/06/27 01:26:43;;;;;;;2.40;1.13;;;20.00;60.80;;;;;;6058151;23;20011;-88
2022/06/27 01:29:09;;;;;;;2.55;1.15;;;19.90;60.70;;;;;;6035283;23;20095;-87
2022/06/27 01:31:36;;;;;;;1.65;0.82;;;19.90;60.80;;;;;;6058348;23;20014;-88
2022/06/27 01:34:02;;;;;;;1.33;0.77;;;19.90;60.80;;;;;;6036178;23;20046;-87
2022/06/27 01:36:41;;;;;;;1.65;0.98;;;19.90;60.80;;;;;;6033978;23;20006;-84
2022/06/27 01:39:11;;;;;;;1.80;0.80;;;19.80;60.80;;;;;;6035245;23;20007;-88
2022/06/27 01:41:44;;;;;;;2.85;0.90;;;19.80;60.80;;;;;;6032966;23;20010;-88
2022/06/27 01:44:10;;;;;;;0.65;0.60;;;19.80;61.00;;;;;;6032161;23;20073;-88
2022/06/27 01:46:49;;;;;;;1.48;0.70;;;19.80;61.00;;;;;;6058814;23;20018;-88
2022/06/27 01:49:16;;;;;;;2.20;0.90;;;19.80;61.00;;;;;;6034301;23;20017;-85
2022/06/27 01:51:45;;;;;;;2.92;1.13;;;19.70;61.00;;;;;;6033198;23;20018;-87
2022/06/27 01:54:13;;;;;;;2.10;0.93;;;19.70;61.00;;;;;;6033006;23;20014;-88
2022/06/27 01:56:44;;;;;;;3.08;0.90;;;19.70;61.00;;;;;;6034345;23;20043;-88
2022/06/27 01:59:11;;;;;;;2.13;0.80;;;19.60;61.00;;;;;;6033986;23;20010;-88
2022/06/27 02:01:40;;;;;;;3.28;0.88;;;19.60;61.10;;;;;;6031093;23;20003;-88
2022/06/27 02:04:07;;;;;;;5.07;0.88;;;19.50;61.10;;;;;;6058411;23;20013;-87
2022/06/27 02:06:33;;;;;;;3.05;0.80;;;19.50;61.20;;;;;;6034205;23;20447;-87
2022/06/27 02:09:04;;;;;;;3.78;1.20;;;19.50;61.30;;;;;;6059476;23;20077;-87
2022/06/27 02:11:31;;;;;;;1.98;0.85;;;19.50;61.30;;;;;;6060974;23;20039;-87
2022/06/27 02:13:58;;;;;;;1.45;0.77;;;19.50;61.40;;;;;;6060739;23;20098;-88
2022/06/27 02:16:25;;;;;;;2.35;0.90;;;19.40;61.40;;;;;;6010833;23;20090;-87
2022/06/27 02:18:51;;;;;;;1.10;0.70;;;19.40;61.50;;;;;;6035236;23;20018;-88
2022/06/27 02:21:20;;;;;;;3.88;0.98;;;19.30;61.50;;;;;;6055869;23;20118;-87
2022/06/27 02:23:48;;;;;;;5.20;1.00;;;19.30;61.50;;;;;;6034373;23;20412;-87
2022/06/27 02:26:14;;;;;;;2.03;0.80;;;19.30;61.60;;;;;;6031362;23;20030;-88
2022/06/27 02:28:41;;;;;;;3.03;0.80;;;19.30;62.10;;;;;;6033939;23;20019;-88
2022/06/27 02:31:09;;;;;;;2.22;0.82;;;19.30;61.50;;;;;;6032445;23;20058;-87
2022/06/27 02:33:41;;;;;;;2.13;0.88;;;19.30;61.60;;;;;;6055511;23;20021;-88
2022/06/27 02:36:09;;;;;;;3.15;0.88;;;19.20;61.60;;;;;;6033003;23;20014;-88
2022/06/27 02:38:37;;;;;;;2.10;0.88;;;19.20;61.50;;;;;;6059578;23;20002;-88
2022/06/27 02:41:04;;;;;;;4.88;0.90;;;19.20;61.50;;;;;;6040973;23;20015;-85
2022/06/27 02:43:33;;;;;;;3.10;0.88;;;19.20;61.40;;;;;;6033960;23;20006;-85
2022/06/27 02:45:59;;;;;;;1.98;0.95;;;19.20;61.40;;;;;;6058996;23;20031;-86
2022/06/27 02:48:26;;;;;;;1.27;0.70;;;19.20;61.40;;;;;;6038008;23;20010;-87
2022/06/27 02:50:56;;;;;;;2.90;0.70;;;19.20;61.40;;;;;;6059464;23;20362;-88
2022/06/27 02:53:35;;;;;;;3.65;1.35;;;19.20;61.40;;;;;;6057230;23;20007;-87
2022/06/27 02:56:05;;;;;;;2.08;0.80;;;19.20;61.40;;;;;;6058480;23;20346;-87
2022/06/27 02:58:38;;;;;;;1.85;0.80;;;19.20;61.40;;;;;;6057906;23;20007;-87
2022/06/27 03:01:04;;;;;;;2.85;0.90;;;19.20;61.40;;;;;;6032009;23;20140;-87
2022/06/27 03:03:34;;;;;;;1.65;0.90;;;19.20;61.50;;;;;;6058785;23;20454;-85
2022/06/27 03:06:06;;;;;;;1.80;0.80;;;19.20;61.50;;;;;;6035718;23;20007;-84
2022/06/27 03:08:42;;;;;;;1.77;0.70;;;19.20;61.50;;;;;;6034219;23;20017;-87
2022/06/27 03:11:14;;;;;;;2.05;1.13;;;19.20;61.50;;;;;;6035571;23;20011;-87
2022/06/27 03:13:41;;;;;;;2.78;0.70;;;19.10;61.40;;;;;;6059215;23;20041;-87
2022/06/27 03:16:08;;;;;;;2.25;1.10;;;19.10;61.40;;;;;;6031975;23;20030;-87
2022/06/27 03:18:34;;;;;;;2.22;1.02;;;19.10;61.50;;;;;;6057989;23;20062;-87
2022/06/27 03:21:00;;;;;;;2.45;1.15;;;19.10;61.50;;;;;;6009359;23;20006;-85
2022/06/27 03:23:27;;;;;;;1.95;0.88;;;19.10;61.50;;;;;;6011340;23;20011;-87
2022/06/27 03:25:53;;;;;;;4.47;0.95;;;19.10;61.50;;;;;;6034358;23;20031;-88
2022/06/27 03:28:19;;;;;;;1.70;0.77;;;19.00;61.50;;;;;;6032358;23;20038;-87
2022/06/27 03:30:45;;;;;;;4.97;1.00;;;19.00;61.60;;;;;;6033366;23;20018;-87
2022/06/27 03:33:11;;;;;;;2.15;0.90;;;19.00;61.70;;;;;;6031868;23;20143;-88
2022/06/27 03:35:37;;;;;;;1.98;0.90;;;18.90;61.70;;;;;;6034014;23;20015;-87
2022/06/27 03:38:03;;;;;;;1.35;0.75;;;18.90;61.80;;;;;;6056915;23;20034;-87
2022/06/27 03:40:29;;;;;;;3.17;1.17;;;18.90;61.90;;;;;;6056704;23;20007;-89
2022/06/27 03:42:54;;;;;;;2.42;0.70;;;18.90;61.90;;;;;;6030850;23;20466;-86
2022/06/27 03:45:20;;;;;;;3.58;1.00;;;18.90;61.90;;;;;;6032284;23;20415;-88
2022/06/27 03:47:58;;;;;;;3.97;1.00;;;18.90;61.80;;;;;;6034194;23;20336;-88
2022/06/27 03:50:25;;;;;;;3.25;0.90;;;18.90;61.80;;;;;;6054801;23;20093;-87
2022/06/27 03:52:52;;;;;;;2.20;1.00;;;18.80;61.70;;;;;;6035892;23;20007;-88
2022/06/27 03:55:19;;;;;;;2.25;0.63;;;18.90;61.80;;;;;;6059245;23;20021;-88
2022/06/27 03:57:57;;;;;;;3.90;1.05;;;18.90;61.80;;;;;;6029796;23;20010;-88
2022/06/27 04:00:26;;;;;;;2.30;0.93;;;18.80;61.80;;;;;;6055304;23;20007;-85
2022/06/27 04:02:52;;;;;;;3.08;1.00;;;18.90;62.40;;;;;;6035234;23;20081;-88
2022/06/27 04:05:18;;;;;;;5.15;1.10;;;18.90;61.90;;;;;;6056489;23;20470;-88
2022/06/27 04:07:45;;;;;;;3.08;0.95;;;18.90;61.80;;;;;;6052957;23;20317;-87
2022/06/27 04:10:12;;;;;;;2.95;0.82;;;18.90;61.90;;;;;;6057063;23;20017;-88
2022/06/27 04:12:40;;;;;;;2.28;0.93;;;18.90;61.90;;;;;;6034068;23;20017;-88
2022/06/27 04:15:08;;;;;;;1.80;0.88;;;18.90;61.90;;;;;;6054001;23;20086;-87
2022/06/27 04:17:34;;;;;;;2.92;1.10;;;18.90;62.00;;;;;;6031093;23;20014;-87
2022/06/27 04:20:00;;;;;;;2.05;1.00;;;18.90;62.00;;;;;;6057154;23;20168;-87
2022/06/27 04:22:25;;;;;;;2.75;1.60;;;18.90;62.10;;;;;;6057434;23;20002;-87
2022/06/27 04:24:51;;;;;;;2.67;0.90;;;19.00;62.30;;;;;;6056929;23;20112;-86
2022/06/27 04:27:19;;;;;;;1.83;1.02;;;19.00;62.40;;;;;;6058091;23;20010;-87
2022/06/27 04:29:48;;;;;;;2.95;1.05;;;19.00;62.50;;;;;;6059999;23;20010;-88
2022/06/27 04:32:15;;;;;;;2.30;1.45;;;19.00;62.60;;;;;;6030722;23;20159;-88
2022/06/27 04:34:41;;;;;;;3.42;0.95;;;19.00;62.60;;;;;;6057445;23;20015;-87
2022/06/27 04:37:07;;;;;;;3.75;1.10;;;19.00;62.70;;;;;;6056406;23;20011;-88
2022/06/27 04:39:33;;;;;;;1.83;1.00;;;19.00;62.80;;;;;;6055963;23;20469;-89
2022/06/27 04:41:59;;;;;;;3.53;1.15;;;19.00;62.80;;;;;;6057660;23;20038;-88
2022/06/27 04:44:25;;;;;;;12.48;1.23;;;19.00;62.90;;;;;;6056472;23;20402;-89
2022/06/27 04:46:52;;;;;;;4.50;1.15;;;19.00;63.10;;;;;;6032708;23;20473;-87
2022/06/27 04:49:19;;;;;;;3.17;1.20;;;19.00;63.10;;;;;;6057074;23;20022;-85
2022/06/27 04:51:45;;;;;;;5.72;1.20;;;19.00;63.20;;;;;;6033207;23;20086;-88
2022/06/27 04:54:12;;;;;;;2.85;1.25;;;19.00;63.20;;;;;;6032918;23;20011;-88
2022/06/27 04:56:41;;;;;;;3.97;1.02;;;19.00;63.30;;;;;;6031811;23;20387;-88
2022/06/27 04:59:07;;;;;;;4.55;1.10;;;19.00;63.40;;;;;;6055589;23;20017;-88
2022/06/27 05:01:32;;;;;;;2.55;0.98;;;19.00;63.40;;;;;;6030723;23;20006;-88
2022/06/27 05:03:58;;;;;;;3.05;1.20;;;19.00;63.40;;;;;;6056164;23;20003;-89
2022/06/27 05:06:24;;;;;;;1.63;0.82;;;19.00;64.10;;;;;;6031455;23;20406;-88
2022/06/27 05:08:50;;;;;;;3.70;1.20;;;19.00;63.60;;;;;;6031143;23;20069;-87
2022/06/27 05:11:16;;;;;;;3.38;1.20;;;19.00;63.70;;;;;;6056095;23;20342;-89
2022/06/27 05:13:42;;;;;;;6.85;1.25;;;19.00;63.70;;;;;;6031847;23;20015;-88
2022/06/27 05:16:08;;;;;;;3.30;0.80;;;19.00;63.70;;;;;;6055047;23;20081;-89
2022/06/27 05:18:34;;;;;;;5.60;1.08;;;19.00;64.30;;;;;;6054851;23;20034;-89
2022/06/27 05:21:00;;;;;;;2.83;1.02;;;19.00;63.90;;;;;;6029370;23;20007;-89
2022/06/27 05:23:26;;;;;;;3.08;1.20;;;19.00;63.90;;;;;;6030128;23;20003;-88
2022/06/27 05:25:51;;;;;;;4.03;0.95;;;19.00;63.90;;;;;;6032985;23;20007;-89
2022/06/27 05:28:17;;;;;;;2.00;0.93;;;19.00;63.90;;;;;;6032220;23;20031;-87
2022/06/27 05:30:43;;;;;;;6.07;1.05;;;19.00;64.00;;;;;;6057060;23;20038;-89
2022/06/27 05:33:09;;;;;;;3.22;0.98;;;19.00;64.20;;;;;;6031822;23;20011;-88
2022/06/27 05:35:35;;;;;;;2.72;1.33;;;19.10;64.40;;;;;;6031242;23;20014;-87
2022/06/27 05:38:01;;;;;;;6.00;1.75;;;19.10;64.50;;;;;;6052027;23;20018;-87
2022/06/27 05:40:27;;;;;;;10.50;1.33;;;19.10;64.40;;;;;;6056213;23;20323;-88
2022/06/27 05:42:53;;;;;;;5.80;1.05;;;19.10;64.40;;;;;;6031364;23;20053;-87
2022/06/27 05:45:20;;;;;;;2.80;1.35;;;19.10;64.50;;;;;;6055624;23;20451;-87
2022/06/27 05:47:46;;;;;;;6.00;1.20;;;19.10;64.50;;;;;;6032112;23;20454;-85
2022/06/27 05:50:13;;;;;;;6.05;1.20;;;19.10;64.50;;;;;;6055196;23;20007;-88
2022/06/27 05:52:39;;;;;;;4.32;1.30;;;19.10;64.60;;;;;;6030809;23;20011;-88
2022/06/27 05:55:07;;;;;;;1.58;1.08;;;19.10;64.80;;;;;;6055697;23;20359;-88
2022/06/27 05:57:33;;;;;;;3.00;1.13;;;19.10;64.90;;;;;;6054055;23;20018;-89
2022/06/27 05:59:59;;;;;;;1.80;1.00;;;19.10;65.00;;;;;;6031317;23;20014;-88
2022/06/27 06:02:25;;;;;;;4.40;1.02;;;19.10;65.20;;;;;;6031460;23;20085;-88
2022/06/27 06:04:53;;;;;;;2.35;1.00;;;19.20;65.40;;;;;;6032896;23;20042;-88
2022/06/27 06:07:22;;;;;;;4.85;1.50;;;19.20;65.50;;;;;;6055702;23;20013;-88
2022/06/27 06:09:49;;;;;;;3.25;0.90;;;19.20;65.60;;;;;;6057791;23;20069;-87
2022/06/27 06:12:16;;;;;;;5.78;1.20;;;19.20;65.80;;;;;;6034503;23;20354;-88
2022/06/27 06:14:43;;;;;;;2.33;0.95;;;19.20;66.50;;;;;;6028701;23;20077;-86
2022/06/27 06:17:09;;;;;;;3.72;1.15;;;19.30;66.20;;;;;;6056371;23;20039;-88
2022/06/27 06:19:35;;;;;;;2.13;0.85;;;19.30;66.30;;;;;;6033450;23;20346;-88
2022/06/27 06:22:01;;;;;;;5.95;1.75;;;19.30;66.40;;;;;;6056137;23;20015;-88
2022/06/27 06:24:29;;;;;;;3.47;1.38;;;19.30;66.40;;;;;;6031215;23;20002;-88
2022/06/27 06:27:00;;;;;;;4.15;1.20;;;19.30;66.50;;;;;;6057791;23;20103;-87
2022/06/27 06:29:26;;;;;;;5.00;1.10;;;19.40;66.70;;;;;;6008177;23;20011;-87
2022/06/27 06:31:52;;;;;;;2.60;1.25;;;19.40;66.80;;;;;;6048584;23;20014;-87
2022/06/27 06:34:18;;;;;;;4.25;1.17;;;19.40;66.80;;;;;;6058142;23;20007;-90
2022/06/27 06:36:44;;;;;;;3.35;0.80;;;19.40;66.90;;;;;;6058266;23;20379;-88
2022/06/27 06:39:12;;;;;;;4.22;0.80;;;19.30;66.90;;;;;;6055654;23;20077;-90
2022/06/27 06:41:39;;;;;;;5.80;1.60;;;19.40;67.10;;;;;;6031880;23;20013;-89
2022/06/27 06:44:06;;;;;;;6.15;1.30;;;19.40;67.20;;;;;;6030644;23;20439;-89
2022/06/27 06:46:34;;;;;;;12.13;1.27;;;19.40;67.40;;;;;;6033760;23;20027;-89
2022/06/27 06:49:06;;;;;;;2.05;1.20;;;19.40;67.60;;;;;;6057030;23;20011;-88
2022/06/27 06:51:36;;;;;;;7.55;1.42;;;19.40;67.80;;;;;;6030936;23;20018;-88
2022/06/27 06:54:07;;;;;;;3.88;1.08;;;19.40;68.00;;;;;;6034283;23;20381;-88
2022/06/27 06:56:34;;;;;;;4.78;1.30;;;19.40;68.20;;;;;;6059153;23;20007;-89
2022/06/27 06:59:02;;;;;;;2.33;1.05;;;19.40;68.40;;;;;;6032346;23;20319;-89
2022/06/27 07:01:33;;;;;;;3.28;1.10;;;19.40;68.60;;;;;;6031427;23;20007;-88
2022/06/27 07:03:59;;;;;;;3.50;1.20;;;19.40;68.90;;;;;;6010790;23;20482;-88
2022/06/27 07:06:26;;;;;;;2.63;1.00;;;19.50;69.10;;;;;;6056008;23;20011;-88
2022/06/27 07:08:54;;;;;;;1.23;0.80;;;19.50;69.20;;;;;;6033978;23;20066;-88
2022/06/27 07:11:22;;;;;;;3.92;1.00;;;19.50;69.30;;;;;;6057436;23;20454;-88
2022/06/27 07:13:52;;;;;;;2.55;1.20;;;19.50;69.50;;;;;;6032127;23;20014;-88
2022/06/27 07:16:19;;;;;;;2.53;1.10;;;19.50;70.10;;;;;;6058179;23;20038;-89
2022/06/27 07:18:46;;;;;;;3.75;1.23;;;19.50;69.60;;;;;;6058357;23;20038;-88
2022/06/27 07:21:19;;;;;;;5.30;1.30;;;19.50;69.60;;;;;;6058232;23;20007;-89
2022/06/27 07:23:47;;;;;;;4.70;1.30;;;19.50;69.60;;;;;;6032519;23;20010;-89
2022/06/27 07:26:14;;;;;;;5.43;1.25;;;19.60;69.70;;;;;;6055156;23;20042;-88
2022/06/27 07:28:40;;;;;;;2.33;1.38;;;19.50;69.70;;;;;;6033161;23;20011;-88
2022/06/27 07:31:12;;;;;;;7.72;1.27;;;19.50;69.90;;;;;;6059766;23;20042;-88
2022/06/27 07:33:43;;;;;;;4.50;1.13;;;19.50;70.00;;;;;;6031824;23;20010;-85
2022/06/27 07:36:15;;;;;;;4.05;1.13;;;19.60;70.30;;;;;;6058020;23;20007;-88
2022/06/27 07:38:46;;;;;;;1.95;1.00;;;19.60;70.50;;;;;;6032380;23;20295;-89
2022/06/27 07:41:14;;;;;;;4.18;1.00;;;19.60;70.90;;;;;;6034740;23;20328;-88
2022/06/27 07:43:41;;;;;;;2.83;1.20;;;19.60;71.00;;;;;;6055915;23;20407;-88
2022/06/27 07:46:07;;;;;;;4.05;1.30;;;19.60;71.10;;;;;;6057892;23;20082;-85
2022/06/27 07:48:33;;;;;;;3.47;1.02;;;19.70;71.30;;;;;;6057532;23;20014;-89
2022/06/27 07:50:59;;;;;;;2.78;1.10;;;19.70;71.30;;;;;;6034313;23;20021;-89
2022/06/27 07:53:26;;;;;;;2.97;1.10;;;19.70;71.30;;;;;;6056569;23;20086;-87
2022/06/27 07:56:00;;;;;;;2.65;0.90;;;19.70;71.50;;;;;;6032722;23;20011;-88
2022/06/27 07:58:35;;;;;;;2.97;1.00;;;19.70;71.60;;;;;;6055630;23;20101;-87
2022/06/27 08:01:04;;;;;;;3.58;1.05;;;19.70;72.00;;;;;;6054534;23;20331;-88
2022/06/27 08:03:36;;;;;;;3.72;0.98;;;19.70;72.20;;;;;;6031734;23;20014;-88
2022/06/27 08:06:21;;;;;;;5.07;1.05;;;19.70;72.80;;;;;;6034581;23;20007;-86
2022/06/27 08:08:57;;;;;;;2.88;0.85;;;19.80;72.60;;;;;;6056754;23;20046;-89
2022/06/27 08:11:28;;;;;;;2.53;0.70;;;19.80;73.00;;;;;;6055550;23;20007;-88
2022/06/27 08:13:58;;;;;;;2.25;1.00;;;19.80;72.40;;;;;;6055614;23;20087;-88
2022/06/27 08:16:26;;;;;;;2.75;1.10;;;19.80;72.30;;;;;;6031701;23;20006;-88
2022/06/27 08:18:53;;;;;;;5.13;1.10;;;19.90;72.20;;;;;;6034293;23;20018;-88
2022/06/27 08:21:25;;;;;;;2.63;0.70;;;19.90;72.40;;;;;;6056529;23;20073;-88
2022/06/27 08:23:59;;;;;;;4.60;1.08;;;20.00;72.40;;;;;;6032900;23;20066;-88
2022/06/27 08:26:27;;;;;;;6.07;0.93;;;19.90;72.30;;;;;;6029814;23;20070;-88
2022/06/27 08:28:53;;;;;;;1.98;0.88;;;20.00;72.00;;;;;;6055661;23;20075;-88
2022/06/27 08:31:20;;;;;;;4.18;1.30;;;20.00;72.00;;;;;;6032205;23;20102;-88
2022/06/27 08:33:47;;;;;;;4.15;1.20;;;20.00;71.90;;;;;;6056418;23;20058;-88
2022/06/27 08:36:14;;;;;;;3.00;0.70;;;20.00;71.90;;;;;;6029895;23;20066;-87
2022/06/27 08:38:50;;;;;;;4.13;0.70;;;20.00;71.90;;;;;;6030388;23;20014;-87
2022/06/27 08:41:22;;;;;;;2.47;0.70;;;20.10;71.90;;;;;;6031026;23;20092;-88
2022/06/27 08:43:52;;;;;;;2.60;0.70;;;20.10;71.70;;;;;;6055687;23;20007;-88
2022/06/27 08:46:18;;;;;;;5.45;0.63;;;20.20;71.50;;;;;;6030187;23;20093;-88
2022/06/27 08:48:45;;;;;;;1.85;0.82;;;20.20;71.20;;;;;;6028922;23;20350;-88
2022/06/27 08:51:12;;;;;;;2.00;0.70;;;20.30;71.10;;;;;;6030032;23;20398;-88
2022/06/27 08:53:39;;;;;;;2.75;0.70;;;20.30;70.60;;;;;;6035485;23;20017;-89
2022/06/27 08:56:08;;;;;;;3.63;0.70;;;20.30;70.20;;;;;;6031415;23;20071;-89
2022/06/27 08:58:35;;;;;;;2.85;0.90;;;20.30;69.90;;;;;;6057330;23;20086;-89
2022/06/27 09:01:01;;;;;;;1.38;0.60;;;20.30;68.50;;;;;;6033089;23;19999;-89
2022/06/27 09:03:29;;;;;;;1.80;0.77;;;20.40;67.80;;;;;;6029871;23;20082;-89
2022/06/27 09:06:10;;;;;;;5.80;0.70;;;20.40;67.30;;;;;;6055350;23;20006;-90
2022/06/27 09:09:05;;;;;;;3.55;0.70;;;20.40;66.50;;;;;;6035969;23;20447;-89
2022/06/27 09:11:33;;;;;;;;;;;20.50;65.60;;;;;;6031830;23;20336;-89
2022/06/27 09:14:00;;;;;;;1.15;0.50;;;20.50;65.90;;;;;;6010983;23;19932;-90
2022/06/27 09:16:27;;;;;;;2.78;0.60;;;20.50;65.70;;;;;;6028471;23;20458;-90
2022/06/27 09:18:55;;;;;;;2.72;0.73;;;20.50;65.40;;;;;;6007900;23;20010;-90
2022/06/27 09:21:21;;;;;;;2.97;0.82;;;20.60;65.20;;;;;;6055675;23;20034;-89
2022/06/27 09:23:55;;;;;;;0.95;0.60;;;20.60;63.90;;;;;;6033580;23;20345;-89
2022/06/27 09:26:44;;;;;;;2.60;0.45;;;20.60;62.70;;;;;;6056319;23;20098;-88
2022/06/27 09:29:12;;;;;;;1.58;0.60;;;20.70;62.30;;;;;;5985940;23;20019;-87
2022/06/27 09:31:45;;;;;;;2.17;0.50;;;20.70;61.90;;;;;;6034116;23;20015;-90
2022/06/27 09:34:23;;;;;;;2.55;0.43;;;20.70;61.20;;;;;;6032566;23;20073;-89
2022/06/27 09:36:59;;;;;;;2.53;1.02;;;20.80;60.60;;;;;;6029312;23;20010;-90
2022/06/27 09:39:29;;;;;;;2.90;0.50;;;20.80;59.90;;;;;;6057684;23;20003;-90
2022/06/27 09:42:08;;;;;;;4.72;0.60;;;20.80;59.80;;;;;;6035600;23;20073;-90
2022/06/27 09:44:44;;;;;;;2.75;0.60;;;20.80;59.20;;;;;;6035844;23;20443;-90
2022/06/27 09:47:20;;;;;;;3.47;0.88;;;20.90;58.50;;;;;;6034892;23;20095;-89
2022/06/27 09:49:50;;;;;;;3.58;0.75;;;20.90;57.30;;;;;;6057776;23;20006;-90
2022/06/27 09:52:21;;;;;;;2.22;0.40;;;20.90;56.60;;;;;;6034301;23;20007;-91
2022/06/27 09:54:49;;;;;;;2.05;0.52;;;20.90;56.30;;;;;;6010627;23;20443;-90
2022/06/27 09:57:16;;;;;;;0.60;0.40;;;21.00;56.10;;;;;;6034323;23;20462;-90
2022/06/27 09:59:45;;;;;;;2.50;0.75;;;21.00;56.50;;;;;;6035168;23;20007;-89
2022/06/27 10:02:16;;;;;;;3.45;0.77;;;21.00;55.80;;;;;;6059001;23;20513;-91
2022/06/27 10:04:44;;;;;;;1.15;0.45;;;21.10;55.50;;;;;;6033797;23;20049;-91
2022/06/27 10:07:11;;;;;;;1.90;0.60;;;21.10;55.30;;;;;;6031208;23;20026;-91
2022/06/27 10:09:38;;;;;;;4.75;0.82;;;21.10;54.70;;;;;;6036226;23;20450;-87
2022/06/27 10:12:31;;;;;;;1.80;0.55;;;21.20;54.30;;;;;;6057302;23;20007;-91
2022/06/27 10:15:09;;;;;;;2.13;0.50;;;21.20;53.70;;;;;;6032619;23;20070;-91
2022/06/27 10:17:45;;;;;;;1.25;0.52;;;21.20;53.60;;;;;;6034384;23;20467;-88
2022/06/27 10:20:35;;;;;;;1.67;0.57;;;21.30;53.60;;;;;;6032219;23;20006;-91
2022/06/27 10:23:03;;;;;;;1.98;0.70;;;21.30;53.00;;;;;;6032920;23;20014;-91
2022/06/27 10:25:29;;;;;;;1.27;0.50;;;21.40;52.10;;;;;;6033200;23;20007;-90
2022/06/27 10:28:10;;;;;;;0.98;0.32;;;21.40;52.10;;;;;;6057967;23;20033;-90
2022/06/27 10:30:49;;;;;;;1.50;0.47;;;21.40;51.60;;;;;;6057322;23;20030;-88
2022/06/27 10:33:21;;;;;;;2.78;0.80;;;21.50;51.50;;;;;;6032775;23;20022;-90
2022/06/27 10:38:23;;;;;;;;;;;21.50;51.50;;;;;;6058077;23;20327;-90
2022/06/27 10:40:50;;;;;;;1.55;0.60;;;21.60;51.80;;;;;;5986128;23;19906;-90
2022/06/27 10:43:47;;;;;;;2.10;0.60;;;21.60;51.80;;;;;;6057693;23;20081;-90
2022/06/27 10:46:13;;;;;;;1.55;1.15;;;21.60;51.30;;;;;;6057797;23;20074;-90
2022/06/27 10:48:55;;;;;;;1.52;0.50;;;21.60;51.30;;;;;;6032856;23;20014;-89
2022/06/27 10:51:30;;;;;;;2.53;0.40;;;21.70;51.10;;;;;;6063058;23;20113;-90
2022/06/27 10:54:05;;;;;;;1.75;0.40;;;21.70;51.20;;;;;;6033654;23;20006;-89
2022/06/27 10:56:46;;;;;;;1.98;0.80;;;21.70;50.90;;;;;;6059599;23;20597;-89
2022/06/27 10:59:15;;;;;;;4.15;0.52;;;21.80;50.70;;;;;;6055566;23;20017;-90
2022/06/27 11:01:58;;;;;;;1.98;0.55;;;21.80;50.40;;;;;;6031123;23;20030;-91
2022/06/27 11:04:28;;;;;;;1.00;0.50;;;21.90;50.40;;;;;;6030120;23;20023;-95
2022/06/27 11:06:57;;;;;;;3.05;0.90;;;21.90;49.90;;;;;;6033733;23;20525;-90
2022/06/27 11:09:45;;;;;;;1.13;0.40;;;22.00;49.50;;;;;;6030348;23;20025;-90
2022/06/27 11:12:13;;;;;;;1.20;0.50;;;22.00;49.00;;;;;;6033074;23;20006;-90
2022/06/27 11:14:54;;;;;;;1.25;0.40;;;22.00;49.30;;;;;;6027738;23;20094;-89
2022/06/27 11:17:41;;;;;;;2.83;0.95;;;22.00;48.80;;;;;;6057034;23;20017;-91
2022/06/27 11:20:23;;;;;;;2.22;0.63;;;22.00;48.60;;;;;;6032887;23;20022;-90
2022/06/27 11:23:01;;;;;;;2.05;0.52;;;22.00;48.40;;;;;;6033727;23;20007;-90
2022/06/27 11:25:30;;;;;;;4.03;0.75;;;22.10;48.50;;;;;;6034073;23;20003;-90
2022/06/27 11:33:33;;;;;;;;;;;22.20;47.80;;;;;;6034870;23;20025;-90
2022/06/27 11:35:59;;;;;;;2.33;0.60;;;22.20;48.00;;;;;;6002489;23;19906;-90
2022/06/27 11:38:31;;;;;;;1.05;0.45;;;22.20;47.80;;;;;;6024388;23;20027;-90
2022/06/27 11:41:08;;;;;;;0.45;0.35;;;22.20;47.70;;;;;;6029891;23;20011;-91
2022/06/27 11:43:56;;;;;;;1.90;0.47;;;22.20;47.50;;;;;;6031339;23;20019;-90
2022/06/27 11:46:35;;;;;;;0.88;0.30;;;22.30;47.40;;;;;;6028058;23;20010;-87
2022/06/27 11:49:05;;;;;;;2.10;0.50;;;22.30;47.50;;;;;;6028112;23;20518;-89
2022/06/27 11:51:40;;;;;;;1.65;0.63;;;22.40;47.50;;;;;;6006345;23;20011;-90
2022/06/27 11:54:18;;;;;;;1.63;0.45;;;22.40;46.70;;;;;;6032369;23;20018;-90
2022/06/27 11:56:48;;;;;;;0.82;0.40;;;22.40;46.70;;;;;;6025819;23;20010;-90
2022/06/27 11:59:17;;;;;;;2.38;0.45;;;22.40;46.50;;;;;;6033112;23;20037;-87
2022/06/27 12:01:56;;;;;;;3.50;0.45;;;22.50;46.60;;;;;;6032552;23;20019;-88
2022/06/27 12:04:27;;;;;;;2.50;0.77;;;22.60;46.50;;;;;;6052692;23;20019;-88
2022/06/27 12:06:57;;;;;;;2.38;0.50;;;22.60;46.60;;;;;;6031467;23;20014;-90
2022/06/27 12:09:26;;;;;;;2.20;0.45;;;22.60;46.60;;;;;;6030582;23;20025;-85
2022/06/27 12:11:58;;;;;;;1.30;0.45;;;22.70;46.80;;;;;;6028391;23;20039;-89
2022/06/27 12:14:25;;;;;;;2.20;0.60;;;22.70;46.80;;;;;;6052980;23;20540;-89
2022/06/27 12:16:57;;;;;;;2.03;0.30;;;22.80;46.80;;;;;;6029680;23;20015;-90
2022/06/27 12:19:25;;;;;;;3.78;0.60;;;22.90;46.80;;;;;;6052139;23;20527;-90
2022/06/27 12:21:51;;;;;;;3.10;0.50;;;22.90;46.50;;;;;;6029412;23;20014;-88
2022/06/27 12:24:17;;;;;;;4.60;0.60;;;23.00;46.60;;;;;;6031578;23;20021;-90
2022/06/27 12:26:43;;;;;;;1.95;0.55;;;23.00;46.50;;;;;;6055700;23;20010;-87
2022/06/27 12:29:10;;;;;;;2.30;0.50;;;23.00;46.10;;;;;;6031090;23;20150;-89
2022/06/27 12:31:37;;;;;;;1.05;0.30;;;23.10;45.90;;;;;;6030952;23;20011;-89
2022/06/27 12:34:03;;;;;;;0.50;0.30;;;23.10;45.50;;;;;;6031857;23;20066;-90
2022/06/27 12:36:31;;;;;;;1.13;0.40;;;23.20;45.40;;;;;;6032956;23;20010;-89
2022/06/27 12:39:01;;;;;;;2.38;0.50;;;23.20;45.40;;;;;;6029319;23;20023;-90
2022/06/27 12:41:27;;;;;;;0.75;0.32;;;23.20;45.20;;;;;;6029523;23;20006;-90
2022/06/27 12:43:53;;;;;;;1.67;0.50;;;23.20;45.30;;;;;;6027061;23;20014;-87
2022/06/27 12:46:20;;;;;;;1.55;0.50;;;23.30;45.20;;;;;;6032163;23;20011;-89
2022/06/27 12:48:47;;;;;;;2.00;0.35;;;23.30;44.80;;;;;;6029763;23;20462;-87
2022/06/27 12:51:13;;;;;;;2.83;0.60;;;23.30;45.00;;;;;;6035186;23;20007;-89
2022/06/27 12:53:39;;;;;;;2.53;0.50;;;23.30;45.00;;;;;;6028737;23;20102;-89
2022/06/27 12:56:06;;;;;;;3.08;1.27;;;23.30;44.80;;;;;;6030530;23;20058;-89
2022/06/27 12:58:33;;;;;;;1.65;0.80;;;23.30;44.40;;;;;;6028927;23;20023;-89
2022/06/27 13:01:00;;;;;;;2.63;0.50;;;23.30;44.40;;;;;;6006905;23;20413;-90
2022/06/27 13:03:26;;;;;;;3.40;0.38;;;23.30;44.40;;;;;;6030490;23;20101;-88
2022/06/27 13:05:52;;;;;;;2.22;0.40;;;23.30;44.50;;;;;;6052233;23;20065;-89